sensor_id;sensor_type;location;lat;lon;timestamp;P1;P2;P0
76661;PMS5003;65579;45.534;6.212;2023-03-14T00:01:18;0;0;
76661;PMS5003;65579;45.534;6.212;2023-03-14T00:03:43;0;0;
76661;PMS5003;65579;45.534;6.212;2023-03-14T00:06:08;2;2;
76661;PMS5003;65579;45.534;6.212;2023-03-14T00:08:33;0;0;
76661;PMS5003;65579;45.534;6.212;2023-03-14T00:13:23;0;0;
76661;PMS5003;65579;45.534;6.212;2023-03-14T00:15:49;0;0;
76661;PMS5003;65579;45.534;6.212;2023-03-14T00:18:14;1;1;
76661;PMS5003;65579;45.534;6.212;2023-03-14T00:20:39;0;0;
76661;PMS5003;65579;45.534;6.212;2023-03-14T00:23:04;0;0;
76661;PMS5003;65579;45.534;6.212;2023-03-14T00:25:29;0;0;
76661;PMS5003;65579;45.534;6.212;2023-03-14T00:27:55;1;0;
76661;PMS5003;65579;45.534;6.212;2023-03-14T00:30:20;2;2;
76661;PMS5003;65579;45.534;6.212;2023-03-14T00:32:45;1;1;
76661;PMS5003;65579;45.534;6.212;2023-03-14T00:35:10;2;1;
76661;PMS5003;65579;45.534;6.212;2023-03-14T00:37:35;0;0;
76661;PMS5003;65579;45.534;6.212;2023-03-14T00:40:01;0;0;
76661;PMS5003;65579;45.534;6.212;2023-03-14T00:42:26;2;1;
76661;PMS5003;65579;45.534;6.212;2023-03-14T00:44:51;1;1;
76661;PMS5003;65579;45.534;6.212;2023-03-14T00:47:16;1;0;
76661;PMS5003;65579;45.534;6.212;2023-03-14T00:49:41;2;1;
76661;PMS5003;65579;45.534;6.212;2023-03-14T00:52:07;3;1;
76661;PMS5003;65579;45.534;6.212;2023-03-14T00:54:33;0;0;
76661;PMS5003;65579;45.534;6.212;2023-03-14T00:56:57;1;1;
76661;PMS5003;65579;45.534;6.212;2023-03-14T00:59:22;0;0;
76661;PMS5003;65579;45.534;6.212;2023-03-14T01:01:47;0;0;
76661;PMS5003;65579;45.534;6.212;2023-03-14T01:04:13;0;0;
76661;PMS5003;65579;45.534;6.212;2023-03-14T01:06:38;0;0;
76661;PMS5003;65579;45.534;6.212;2023-03-14T01:09:03;0;0;
76661;PMS5003;65579;45.534;6.212;2023-03-14T01:11:30;0;0;
76661;PMS5003;65579;45.534;6.212;2023-03-14T01:13:54;0;0;
76661;PMS5003;65579;45.534;6.212;2023-03-14T01:16:19;0;0;
76661;PMS5003;65579;45.534;6.212;2023-03-14T01:18:45;1;1;
76661;PMS5003;65579;45.534;6.212;2023-03-14T01:21:10;1;1;
76661;PMS5003;65579;45.534;6.212;2023-03-14T01:23:35;1;0;
76661;PMS5003;65579;45.534;6.212;2023-03-14T01:26:00;0;0;
76661;PMS5003;65579;45.534;6.212;2023-03-14T01:28:25;0;0;
76661;PMS5003;65579;45.534;6.212;2023-03-14T01:30:50;0;0;
76661;PMS5003;65579;45.534;6.212;2023-03-14T01:33:15;0;0;
76661;PMS5003;65579;45.534;6.212;2023-03-14T01:35:41;0;0;
76661;PMS5003;65579;45.534;6.212;2023-03-14T01:38:06;0;0;
76661;PMS5003;65579;45.534;6.212;2023-03-14T01:40:31;1;1;
76661;PMS5003;65579;45.534;6.212;2023-03-14T01:42:57;0;0;
76661;PMS5003;65579;45.534;6.212;2023-03-14T01:47:52;0;0;
76661;PMS5003;65579;45.534;6.212;2023-03-14T01:50:12;0;0;
76661;PMS5003;65579;45.534;6.212;2023-03-14T01:52:38;0;0;
76661;PMS5003;65579;45.534;6.212;2023-03-14T01:55:04;0;0;
76661;PMS5003;65579;45.534;6.212;2023-03-14T01:57:28;1;1;
76661;PMS5003;65579;45.534;6.212;2023-03-14T01:59:54;1;1;
76661;PMS5003;65579;45.534;6.212;2023-03-14T02:02:18;0;0;
76661;PMS5003;65579;45.534;6.212;2023-03-14T02:04:44;1;1;
76661;PMS5003;65579;45.534;6.212;2023-03-14T02:07:10;0;0;
76661;PMS5003;65579;45.534;6.212;2023-03-14T02:09:34;2;1;
76661;PMS5003;65579;45.534;6.212;2023-03-14T02:11:59;0;0;
76661;PMS5003;65579;45.534;6.212;2023-03-14T02:14:28;0;0;
76661;PMS5003;65579;45.534;6.212;2023-03-14T02:16:50;0;0;
76661;PMS5003;65579;45.534;6.212;2023-03-14T02:19:16;0;0;
76661;PMS5003;65579;45.534;6.212;2023-03-14T02:21:47;0;0;
76661;PMS5003;65579;45.534;6.212;2023-03-14T02:24:07;1;1;
76661;PMS5003;65579;45.534;6.212;2023-03-14T02:26:31;0;0;
76661;PMS5003;65579;45.534;6.212;2023-03-14T02:28:56;0;0;
76661;PMS5003;65579;45.534;6.212;2023-03-14T02:31:21;0;0;
76661;PMS5003;65579;45.534;6.212;2023-03-14T02:33:46;0;0;
76661;PMS5003;65579;45.534;6.212;2023-03-14T02:36:13;1;0;
76661;PMS5003;65579;45.534;6.212;2023-03-14T02:38:38;0;0;
76661;PMS5003;65579;45.534;6.212;2023-03-14T02:41:03;0;0;
76661;PMS5003;65579;45.534;6.212;2023-03-14T02:43:28;0;0;
76661;PMS5003;65579;45.534;6.212;2023-03-14T02:45:53;0;0;
76661;PMS5003;65579;45.534;6.212;2023-03-14T02:48:19;1;1;
76661;PMS5003;65579;45.534;6.212;2023-03-14T02:50:44;0;0;
76661;PMS5003;65579;45.534;6.212;2023-03-14T02:53:12;0;0;
76661;PMS5003;65579;45.534;6.212;2023-03-14T02:55:34;1;1;
76661;PMS5003;65579;45.534;6.212;2023-03-14T02:57:59;1;1;
76661;PMS5003;65579;45.534;6.212;2023-03-14T03:00:25;2;2;
76661;PMS5003;65579;45.534;6.212;2023-03-14T03:02:52;2;2;
76661;PMS5003;65579;45.534;6.212;2023-03-14T03:05:15;3;2;
76661;PMS5003;65579;45.534;6.212;2023-03-14T03:07:40;1;1;
76661;PMS5003;65579;45.534;6.212;2023-03-14T03:10:06;0;0;
76661;PMS5003;65579;45.534;6.212;2023-03-14T03:14:56;0;0;
76661;PMS5003;65579;45.534;6.212;2023-03-14T03:17:21;1;1;
76661;PMS5003;65579;45.534;6.212;2023-03-14T03:19:46;1;1;
76661;PMS5003;65579;45.534;6.212;2023-03-14T03:22:12;1;1;
76661;PMS5003;65579;45.534;6.212;2023-03-14T03:24:37;1;1;
76661;PMS5003;65579;45.534;6.212;2023-03-14T03:27:02;4;4;
76661;PMS5003;65579;45.534;6.212;2023-03-14T03:29:28;2;2;
76661;PMS5003;65579;45.534;6.212;2023-03-14T03:31:54;7;7;
76661;PMS5003;65579;45.534;6.212;2023-03-14T03:34:19;2;2;
76661;PMS5003;65579;45.534;6.212;2023-03-14T03:36:44;0;0;
76661;PMS5003;65579;45.534;6.212;2023-03-14T03:39:09;2;2;
76661;PMS5003;65579;45.534;6.212;2023-03-14T03:41:35;0;0;
76661;PMS5003;65579;45.534;6.212;2023-03-14T03:44:00;1;1;
76661;PMS5003;65579;45.534;6.212;2023-03-14T03:46:25;2;2;
76661;PMS5003;65579;45.534;6.212;2023-03-14T03:48:54;4;4;
76661;PMS5003;65579;45.534;6.212;2023-03-14T03:51:16;2;2;
76661;PMS5003;65579;45.534;6.212;2023-03-14T03:53:41;3;3;
76661;PMS5003;65579;45.534;6.212;2023-03-14T03:56:07;12;12;
76661;PMS5003;65579;45.534;6.212;2023-03-14T03:58:32;4;3;
76661;PMS5003;65579;45.534;6.212;2023-03-14T04:00:58;0;0;
76661;PMS5003;65579;45.534;6.212;2023-03-14T04:03:23;1;1;
76661;PMS5003;65579;45.534;6.212;2023-03-14T04:08:14;2;2;
76661;PMS5003;65579;45.534;6.212;2023-03-14T04:10:39;0;0;
76661;PMS5003;65579;45.534;6.212;2023-03-14T04:13:04;1;1;
76661;PMS5003;65579;45.534;6.212;2023-03-14T04:15:29;3;3;
76661;PMS5003;65579;45.534;6.212;2023-03-14T04:17:56;5;5;
76661;PMS5003;65579;45.534;6.212;2023-03-14T04:20:20;2;2;
76661;PMS5003;65579;45.534;6.212;2023-03-14T04:22:45;2;0;
76661;PMS5003;65579;45.534;6.212;2023-03-14T04:25:11;0;0;
76661;PMS5003;65579;45.534;6.212;2023-03-14T04:27:36;0;0;
76661;PMS5003;65579;45.534;6.212;2023-03-14T04:30:02;0;0;
76661;PMS5003;65579;45.534;6.212;2023-03-14T04:32:26;0;0;
76661;PMS5003;65579;45.534;6.212;2023-03-14T04:34:52;0;0;
76661;PMS5003;65579;45.534;6.212;2023-03-14T04:37:17;0;0;
76661;PMS5003;65579;45.534;6.212;2023-03-14T04:39:42;1;1;
76661;PMS5003;65579;45.534;6.212;2023-03-14T04:42:07;0;0;
76661;PMS5003;65579;45.534;6.212;2023-03-14T04:44:33;0;0;
76661;PMS5003;65579;45.534;6.212;2023-03-14T04:46:58;1;1;
76661;PMS5003;65579;45.534;6.212;2023-03-14T04:49:23;1;0;
76661;PMS5003;65579;45.534;6.212;2023-03-14T04:51:49;2;2;
76661;PMS5003;65579;45.534;6.212;2023-03-14T04:54:14;2;2;
76661;PMS5003;65579;45.534;6.212;2023-03-14T04:56:39;3;1;
76661;PMS5003;65579;45.534;6.212;2023-03-14T04:59:04;0;0;
76661;PMS5003;65579;45.534;6.212;2023-03-14T05:01:30;1;1;
76661;PMS5003;65579;45.534;6.212;2023-03-14T05:03:55;0;0;
76661;PMS5003;65579;45.534;6.212;2023-03-14T05:06:20;0;0;
76661;PMS5003;65579;45.534;6.212;2023-03-14T05:08:46;0;0;
76661;PMS5003;65579;45.534;6.212;2023-03-14T05:11:11;0;0;
76661;PMS5003;65579;45.534;6.212;2023-03-14T05:13:36;0;0;
76661;PMS5003;65579;45.534;6.212;2023-03-14T05:16:03;0;0;
76661;PMS5003;65579;45.534;6.212;2023-03-14T05:18:27;3;2;
76661;PMS5003;65579;45.534;6.212;2023-03-14T05:20:52;2;2;
76661;PMS5003;65579;45.534;6.212;2023-03-14T05:23:17;2;2;
76661;PMS5003;65579;45.534;6.212;2023-03-14T05:25:43;6;6;
76661;PMS5003;65579;45.534;6.212;2023-03-14T05:28:08;3;3;
76661;PMS5003;65579;45.534;6.212;2023-03-14T05:30:33;4;4;
76661;PMS5003;65579;45.534;6.212;2023-03-14T05:32:59;2;2;
76661;PMS5003;65579;45.534;6.212;2023-03-14T05:35:24;1;1;
76661;PMS5003;65579;45.534;6.212;2023-03-14T05:37:49;1;1;
76661;PMS5003;65579;45.534;6.212;2023-03-14T05:40:14;0;0;
76661;PMS5003;65579;45.534;6.212;2023-03-14T05:42:40;1;1;
76661;PMS5003;65579;45.534;6.212;2023-03-14T05:45:05;2;1;
76661;PMS5003;65579;45.534;6.212;2023-03-14T05:47:30;1;1;
76661;PMS5003;65579;45.534;6.212;2023-03-14T05:49:56;0;0;
76661;PMS5003;65579;45.534;6.212;2023-03-14T05:52:21;1;1;
76661;PMS5003;65579;45.534;6.212;2023-03-14T05:54:46;0;0;
76661;PMS5003;65579;45.534;6.212;2023-03-14T05:57:11;1;1;
76661;PMS5003;65579;45.534;6.212;2023-03-14T05:59:37;2;2;
76661;PMS5003;65579;45.534;6.212;2023-03-14T06:02:02;1;1;
76661;PMS5003;65579;45.534;6.212;2023-03-14T06:04:27;1;1;
76661;PMS5003;65579;45.534;6.212;2023-03-14T06:06:53;19;17;
76661;PMS5003;65579;45.534;6.212;2023-03-14T06:09:18;25;23;
76661;PMS5003;65579;45.534;6.212;2023-03-14T06:11:43;12;9;
76661;PMS5003;65579;45.534;6.212;2023-03-14T06:14:09;13;13;
76661;PMS5003;65579;45.534;6.212;2023-03-14T06:16:34;5;5;
76661;PMS5003;65579;45.534;6.212;2023-03-14T06:18:59;1;1;
76661;PMS5003;65579;45.534;6.212;2023-03-14T06:21:25;2;1;
76661;PMS5003;65579;45.534;6.212;2023-03-14T06:23:50;1;1;
76661;PMS5003;65579;45.534;6.212;2023-03-14T06:26:15;1;1;
76661;PMS5003;65579;45.534;6.212;2023-03-14T06:28:40;1;1;
76661;PMS5003;65579;45.534;6.212;2023-03-14T06:31:06;8;7;
76661;PMS5003;65579;45.534;6.212;2023-03-14T06:33:31;22;19;
76661;PMS5003;65579;45.534;6.212;2023-03-14T06:35:56;18;18;
76661;PMS5003;65579;45.534;6.212;2023-03-14T06:38:22;12;11;
76661;PMS5003;65579;45.534;6.212;2023-03-14T06:40:47;8;8;
76661;PMS5003;65579;45.534;6.212;2023-03-14T06:43:13;7;7;
76661;PMS5003;65579;45.534;6.212;2023-03-14T06:45:38;4;4;
76661;PMS5003;65579;45.534;6.212;2023-03-14T06:48:04;7;7;
76661;PMS5003;65579;45.534;6.212;2023-03-14T06:50:29;9;7;
76661;PMS5003;65579;45.534;6.212;2023-03-14T06:52:54;6;6;
76661;PMS5003;65579;45.534;6.212;2023-03-14T06:55:20;5;5;
76661;PMS5003;65579;45.534;6.212;2023-03-14T06:57:45;5;5;
76661;PMS5003;65579;45.534;6.212;2023-03-14T07:00:11;6;6;
76661;PMS5003;65579;45.534;6.212;2023-03-14T07:02:36;5;5;
76661;PMS5003;65579;45.534;6.212;2023-03-14T07:05:02;8;6;
76661;PMS5003;65579;45.534;6.212;2023-03-14T07:07:27;12;10;
76661;PMS5003;65579;45.534;6.212;2023-03-14T07:09:52;14;14;
76661;PMS5003;65579;45.534;6.212;2023-03-14T07:12:17;13;13;
76661;PMS5003;65579;45.534;6.212;2023-03-14T07:14:43;7;7;
76661;PMS5003;65579;45.534;6.212;2023-03-14T07:17:08;10;8;
76661;PMS5003;65579;45.534;6.212;2023-03-14T07:19:33;6;6;
76661;PMS5003;65579;45.534;6.212;2023-03-14T07:21:58;7;4;
76661;PMS5003;65579;45.534;6.212;2023-03-14T07:24:24;4;4;
76661;PMS5003;65579;45.534;6.212;2023-03-14T07:26:50;12;12;
76661;PMS5003;65579;45.534;6.212;2023-03-14T07:29:15;11;11;
76661;PMS5003;65579;45.534;6.212;2023-03-14T07:31:41;28;28;
76661;PMS5003;65579;45.534;6.212;2023-03-14T07:34:07;48;48;
76661;PMS5003;65579;45.534;6.212;2023-03-14T07:36:32;24;23;
76661;PMS5003;65579;45.534;6.212;2023-03-14T07:38:58;37;37;
76661;PMS5003;65579;45.534;6.212;2023-03-14T07:41:23;19;18;
76661;PMS5003;65579;45.534;6.212;2023-03-14T07:43:49;17;16;
76661;PMS5003;65579;45.534;6.212;2023-03-14T07:46:14;17;15;
76661;PMS5003;65579;45.534;6.212;2023-03-14T07:48:39;13;11;
76661;PMS5003;65579;45.534;6.212;2023-03-14T07:51:05;14;14;
76661;PMS5003;65579;45.534;6.212;2023-03-14T07:53:30;24;23;
76661;PMS5003;65579;45.534;6.212;2023-03-14T07:55:56;23;20;
76661;PMS5003;65579;45.534;6.212;2023-03-14T07:58:21;18;16;
76661;PMS5003;65579;45.534;6.212;2023-03-14T08:00:46;9;9;
76661;PMS5003;65579;45.534;6.212;2023-03-14T08:03:11;3;3;
76661;PMS5003;65579;45.534;6.212;2023-03-14T08:05:37;6;6;
76661;PMS5003;65579;45.534;6.212;2023-03-14T08:08:02;4;4;
76661;PMS5003;65579;45.534;6.212;2023-03-14T08:10:27;4;4;
76661;PMS5003;65579;45.534;6.212;2023-03-14T08:12:53;2;2;
76661;PMS5003;65579;45.534;6.212;2023-03-14T08:15:18;2;2;
76661;PMS5003;65579;45.534;6.212;2023-03-14T08:17:43;3;3;
76661;PMS5003;65579;45.534;6.212;2023-03-14T08:20:09;2;2;
76661;PMS5003;65579;45.534;6.212;2023-03-14T08:22:34;2;2;
76661;PMS5003;65579;45.534;6.212;2023-03-14T08:24:59;6;6;
76661;PMS5003;65579;45.534;6.212;2023-03-14T08:27:24;5;5;
76661;PMS5003;65579;45.534;6.212;2023-03-14T08:29:49;2;2;
76661;PMS5003;65579;45.534;6.212;2023-03-14T08:32:15;2;2;
76661;PMS5003;65579;45.534;6.212;2023-03-14T08:34:40;2;2;
76661;PMS5003;65579;45.534;6.212;2023-03-14T08:37:05;3;3;
76661;PMS5003;65579;45.534;6.212;2023-03-14T08:39:30;3;3;
76661;PMS5003;65579;45.534;6.212;2023-03-14T08:41:56;3;3;
76661;PMS5003;65579;45.534;6.212;2023-03-14T08:44:21;4;4;
76661;PMS5003;65579;45.534;6.212;2023-03-14T08:46:47;3;3;
76661;PMS5003;65579;45.534;6.212;2023-03-14T08:49:12;2;2;
76661;PMS5003;65579;45.534;6.212;2023-03-14T08:51:37;2;2;
76661;PMS5003;65579;45.534;6.212;2023-03-14T08:54:02;1;1;
76661;PMS5003;65579;45.534;6.212;2023-03-14T08:56:27;2;2;
76661;PMS5003;65579;45.534;6.212;2023-03-14T08:58:53;2;1;
76661;PMS5003;65579;45.534;6.212;2023-03-14T09:01:18;1;1;
76661;PMS5003;65579;45.534;6.212;2023-03-14T09:03:44;6;6;
76661;PMS5003;65579;45.534;6.212;2023-03-14T09:06:09;2;2;
76661;PMS5003;65579;45.534;6.212;2023-03-14T09:08:34;5;5;
76661;PMS5003;65579;45.534;6.212;2023-03-14T09:11:00;7;7;
76661;PMS5003;65579;45.534;6.212;2023-03-14T09:13:25;2;2;
76661;PMS5003;65579;45.534;6.212;2023-03-14T09:15:50;1;1;
76661;PMS5003;65579;45.534;6.212;2023-03-14T09:18:16;1;0;
76661;PMS5003;65579;45.534;6.212;2023-03-14T09:20:41;2;2;
76661;PMS5003;65579;45.534;6.212;2023-03-14T09:23:06;2;2;
76661;PMS5003;65579;45.534;6.212;2023-03-14T09:25:31;3;3;
76661;PMS5003;65579;45.534;6.212;2023-03-14T09:27:56;9;8;
76661;PMS5003;65579;45.534;6.212;2023-03-14T09:30:22;16;14;
76661;PMS5003;65579;45.534;6.212;2023-03-14T09:32:47;14;14;
76661;PMS5003;65579;45.534;6.212;2023-03-14T09:35:13;18;18;
76661;PMS5003;65579;45.534;6.212;2023-03-14T09:37:38;25;25;
76661;PMS5003;65579;45.534;6.212;2023-03-14T09:40:05;26;23;
76661;PMS5003;65579;45.534;6.212;2023-03-14T09:42:29;6;6;
76661;PMS5003;65579;45.534;6.212;2023-03-14T09:44:56;4;4;
76661;PMS5003;65579;45.534;6.212;2023-03-14T09:47:20;4;4;
76661;PMS5003;65579;45.534;6.212;2023-03-14T09:49:45;3;3;
76661;PMS5003;65579;45.534;6.212;2023-03-14T09:52:11;2;2;
76661;PMS5003;65579;45.534;6.212;2023-03-14T09:54:37;4;4;
76661;PMS5003;65579;45.534;6.212;2023-03-14T09:57:01;8;8;
76661;PMS5003;65579;45.534;6.212;2023-03-14T09:59:26;5;5;
76661;PMS5003;65579;45.534;6.212;2023-03-14T10:01:51;3;3;
76661;PMS5003;65579;45.534;6.212;2023-03-14T10:04:18;4;4;
76661;PMS5003;65579;45.534;6.212;2023-03-14T10:06:42;4;4;
76661;PMS5003;65579;45.534;6.212;2023-03-14T10:09:08;2;2;
76661;PMS5003;65579;45.534;6.212;2023-03-14T10:11:33;5;5;
76661;PMS5003;65579;45.534;6.212;2023-03-14T10:14:03;4;4;
76661;PMS5003;65579;45.534;6.212;2023-03-14T10:16:24;3;3;
76661;PMS5003;65579;45.534;6.212;2023-03-14T10:18:48;5;5;
76661;PMS5003;65579;45.534;6.212;2023-03-14T10:21:17;5;4;
76661;PMS5003;65579;45.534;6.212;2023-03-14T10:23:39;6;4;
76661;PMS5003;65579;45.534;6.212;2023-03-14T10:26:07;4;4;
76661;PMS5003;65579;45.534;6.212;2023-03-14T10:28:30;7;7;
76661;PMS5003;65579;45.534;6.212;2023-03-14T10:30:55;7;7;
76661;PMS5003;65579;45.534;6.212;2023-03-14T10:33:21;5;5;
76661;PMS5003;65579;45.534;6.212;2023-03-14T10:35:52;5;5;
76661;PMS5003;65579;45.534;6.212;2023-03-14T10:38:12;9;9;
76661;PMS5003;65579;45.534;6.212;2023-03-14T10:40:38;8;6;
76661;PMS5003;65579;45.534;6.212;2023-03-14T10:43:03;4;4;
76661;PMS5003;65579;45.534;6.212;2023-03-14T10:45:30;5;4;
76661;PMS5003;65579;45.534;6.212;2023-03-14T10:47:52;5;5;
76661;PMS5003;65579;45.534;6.212;2023-03-14T10:50:23;4;4;
76661;PMS5003;65579;45.534;6.212;2023-03-14T10:52:47;4;4;
76661;PMS5003;65579;45.534;6.212;2023-03-14T10:55:09;3;3;
76661;PMS5003;65579;45.534;6.212;2023-03-14T10:57:38;4;4;
76661;PMS5003;65579;45.534;6.212;2023-03-14T10:59:59;3;3;
76661;PMS5003;65579;45.534;6.212;2023-03-14T11:02:29;2;2;
76661;PMS5003;65579;45.534;6.212;2023-03-14T11:04:54;4;4;
76661;PMS5003;65579;45.534;6.212;2023-03-14T11:07:16;8;7;
76661;PMS5003;65579;45.534;6.212;2023-03-14T11:09:41;3;3;
76661;PMS5003;65579;45.534;6.212;2023-03-14T11:12:11;3;3;
76661;PMS5003;65579;45.534;6.212;2023-03-14T11:14:32;2;2;
76661;PMS5003;65579;45.534;6.212;2023-03-14T11:16:57;2;2;
76661;PMS5003;65579;45.534;6.212;2023-03-14T11:21:49;0;0;
76661;PMS5003;65579;45.534;6.212;2023-03-14T11:24:17;0;0;
76661;PMS5003;65579;45.534;6.212;2023-03-14T11:26:40;1;1;
76661;PMS5003;65579;45.534;6.212;2023-03-14T11:29:08;0;0;
76661;PMS5003;65579;45.534;6.212;2023-03-14T11:31:29;1;1;
76661;PMS5003;65579;45.534;6.212;2023-03-14T11:33:56;0;0;
76661;PMS5003;65579;45.534;6.212;2023-03-14T11:36:20;1;0;
76661;PMS5003;65579;45.534;6.212;2023-03-14T11:38:46;0;0;
76661;PMS5003;65579;45.534;6.212;2023-03-14T11:41:10;0;0;
76661;PMS5003;65579;45.534;6.212;2023-03-14T11:43:35;0;0;
76661;PMS5003;65579;45.534;6.212;2023-03-14T11:46:03;0;0;
76661;PMS5003;65579;45.534;6.212;2023-03-14T11:48:28;1;1;
76661;PMS5003;65579;45.534;6.212;2023-03-14T11:50:52;2;2;
76661;PMS5003;65579;45.534;6.212;2023-03-14T11:53:17;1;1;
76661;PMS5003;65579;45.534;6.212;2023-03-14T11:55:42;3;1;
76661;PMS5003;65579;45.534;6.212;2023-03-14T11:58:11;1;1;
76661;PMS5003;65579;45.534;6.212;2023-03-14T12:00:32;0;0;
76661;PMS5003;65579;45.534;6.212;2023-03-14T12:02:58;1;1;
76661;PMS5003;65579;45.534;6.212;2023-03-14T12:05:28;0;0;
76661;PMS5003;65579;45.534;6.212;2023-03-14T12:07:51;0;0;
76661;PMS5003;65579;45.534;6.212;2023-03-14T12:10:13;0;0;
76661;PMS5003;65579;45.534;6.212;2023-03-14T12:12:38;0;0;
76661;PMS5003;65579;45.534;6.212;2023-03-14T12:15:04;0;0;
76661;PMS5003;65579;45.534;6.212;2023-03-14T12:17:34;0;0;
76661;PMS5003;65579;45.534;6.212;2023-03-14T12:22:22;3;2;
76661;PMS5003;65579;45.534;6.212;2023-03-14T12:24:45;3;3;
76661;PMS5003;65579;45.534;6.212;2023-03-14T12:27:09;1;1;
76661;PMS5003;65579;45.534;6.212;2023-03-14T12:32:07;0;0;
76661;PMS5003;65579;45.534;6.212;2023-03-14T12:34:30;0;0;
76661;PMS5003;65579;45.534;6.212;2023-03-14T12:36:53;1;1;
76661;PMS5003;65579;45.534;6.212;2023-03-14T12:39:19;0;0;
76661;PMS5003;65579;45.534;6.212;2023-03-14T12:41:42;0;0;
76661;PMS5003;65579;45.534;6.212;2023-03-14T12:46:31;0;0;
76661;PMS5003;65579;45.534;6.212;2023-03-14T12:49:03;0;0;
76661;PMS5003;65579;45.534;6.212;2023-03-14T12:56:20;0;0;
76661;PMS5003;65579;45.534;6.212;2023-03-14T12:58:39;0;0;
76661;PMS5003;65579;45.534;6.212;2023-03-14T13:01:03;1;1;
76661;PMS5003;65579;45.534;6.212;2023-03-14T13:03:36;0;0;
76661;PMS5003;65579;45.534;6.212;2023-03-14T13:05:53;0;0;
76661;PMS5003;65579;45.534;6.212;2023-03-14T13:10:45;0;0;
76661;PMS5003;65579;45.534;6.212;2023-03-14T13:13:13;1;1;
76661;PMS5003;65579;45.534;6.212;2023-03-14T13:15:34;2;1;
76661;PMS5003;65579;45.534;6.212;2023-03-14T13:17:59;0;0;
76661;PMS5003;65579;45.534;6.212;2023-03-14T13:20:26;2;0;
76661;PMS5003;65579;45.534;6.212;2023-03-14T13:22:49;0;0;
76661;PMS5003;65579;45.534;6.212;2023-03-14T13:25:15;4;1;
76661;PMS5003;65579;45.534;6.212;2023-03-14T13:27:40;1;1;
76661;PMS5003;65579;45.534;6.212;2023-03-14T13:30:11;1;1;
76661;PMS5003;65579;45.534;6.212;2023-03-14T13:32:30;1;1;
76661;PMS5003;65579;45.534;6.212;2023-03-14T13:34:56;1;1;
76661;PMS5003;65579;45.534;6.212;2023-03-14T13:37:22;1;1;
76661;PMS5003;65579;45.534;6.212;2023-03-14T13:39:49;3;1;
76661;PMS5003;65579;45.534;6.212;2023-03-14T13:42:13;2;0;
76661;PMS5003;65579;45.534;6.212;2023-03-14T13:44:37;1;1;
76661;PMS5003;65579;45.534;6.212;2023-03-14T13:47:03;1;1;
76661;PMS5003;65579;45.534;6.212;2023-03-14T13:49:28;0;0;
76661;PMS5003;65579;45.534;6.212;2023-03-14T13:51:53;0;0;
76661;PMS5003;65579;45.534;6.212;2023-03-14T13:54:18;0;0;
76661;PMS5003;65579;45.534;6.212;2023-03-14T13:56:43;0;0;
76661;PMS5003;65579;45.534;6.212;2023-03-14T14:01:34;1;1;
76661;PMS5003;65579;45.534;6.212;2023-03-14T14:04:06;0;0;
76661;PMS5003;65579;45.534;6.212;2023-03-14T14:06:27;0;0;
76661;PMS5003;65579;45.534;6.212;2023-03-14T14:08:49;0;0;
76661;PMS5003;65579;45.534;6.212;2023-03-14T14:11:18;0;0;
76661;PMS5003;65579;45.534;6.212;2023-03-14T14:13:39;0;0;
76661;PMS5003;65579;45.534;6.212;2023-03-14T14:16:04;0;0;
76661;PMS5003;65579;45.534;6.212;2023-03-14T14:18:29;0;0;
76661;PMS5003;65579;45.534;6.212;2023-03-14T14:20:55;1;1;
76661;PMS5003;65579;45.534;6.212;2023-03-14T14:23:20;0;0;
76661;PMS5003;65579;45.534;6.212;2023-03-14T14:25:48;2;2;
76661;PMS5003;65579;45.534;6.212;2023-03-14T14:28:16;1;1;
76661;PMS5003;65579;45.534;6.212;2023-03-14T14:30:36;0;0;
76661;PMS5003;65579;45.534;6.212;2023-03-14T14:35:30;1;0;
76661;PMS5003;65579;45.534;6.212;2023-03-14T14:37:51;1;1;
76661;PMS5003;65579;45.534;6.212;2023-03-14T14:40:18;1;1;
76661;PMS5003;65579;45.534;6.212;2023-03-14T14:42:42;0;0;
76661;PMS5003;65579;45.534;6.212;2023-03-14T14:45:11;0;0;
76661;PMS5003;65579;45.534;6.212;2023-03-14T14:47:32;1;1;
76661;PMS5003;65579;45.534;6.212;2023-03-14T14:49:59;2;1;
76661;PMS5003;65579;45.534;6.212;2023-03-14T14:54:51;2;2;
76661;PMS5003;65579;45.534;6.212;2023-03-14T14:57:17;2;0;
76661;PMS5003;65579;45.534;6.212;2023-03-14T14:59:41;3;3;
76661;PMS5003;65579;45.534;6.212;2023-03-14T15:02:03;1;1;
76661;PMS5003;65579;45.534;6.212;2023-03-14T15:04:29;3;3;
76661;PMS5003;65579;45.534;6.212;2023-03-14T15:06:54;2;2;
76661;PMS5003;65579;45.534;6.212;2023-03-14T15:09:20;1;1;
76661;PMS5003;65579;45.534;6.212;2023-03-14T15:16:35;2;1;
76661;PMS5003;65579;45.534;6.212;2023-03-14T15:19:01;0;0;
76661;PMS5003;65579;45.534;6.212;2023-03-14T15:21:50;0;0;
76661;PMS5003;65579;45.534;6.212;2023-03-14T15:24:15;0;0;
76661;PMS5003;65579;45.534;6.212;2023-03-14T15:26:40;0;0;
76661;PMS5003;65579;45.534;6.212;2023-03-14T15:29:05;1;0;
76661;PMS5003;65579;45.534;6.212;2023-03-14T15:31:31;0;0;
76661;PMS5003;65579;45.534;6.212;2023-03-14T15:33:56;1;1;
76661;PMS5003;65579;45.534;6.212;2023-03-14T15:36:23;0;0;
76661;PMS5003;65579;45.534;6.212;2023-03-14T15:38:47;0;0;
76661;PMS5003;65579;45.534;6.212;2023-03-14T15:41:12;0;0;
76661;PMS5003;65579;45.534;6.212;2023-03-14T15:43:37;1;1;
76661;PMS5003;65579;45.534;6.212;2023-03-14T15:46:03;0;0;
76661;PMS5003;65579;45.534;6.212;2023-03-14T15:48:28;0;0;
76661;PMS5003;65579;45.534;6.212;2023-03-14T15:50:53;0;0;
76661;PMS5003;65579;45.534;6.212;2023-03-14T15:53:18;0;0;
76661;PMS5003;65579;45.534;6.212;2023-03-14T15:55:44;1;1;
76661;PMS5003;65579;45.534;6.212;2023-03-14T15:58:09;2;1;
76661;PMS5003;65579;45.534;6.212;2023-03-14T16:00:34;1;1;
76661;PMS5003;65579;45.534;6.212;2023-03-14T16:03:00;2;0;
76661;PMS5003;65579;45.534;6.212;2023-03-14T16:05:25;1;1;
76661;PMS5003;65579;45.534;6.212;2023-03-14T16:07:50;1;0;
76661;PMS5003;65579;45.534;6.212;2023-03-14T16:10:16;0;0;
76661;PMS5003;65579;45.534;6.212;2023-03-14T16:12:41;0;0;
76661;PMS5003;65579;45.534;6.212;2023-03-14T16:15:07;2;2;
76661;PMS5003;65579;45.534;6.212;2023-03-14T16:17:32;1;1;
76661;PMS5003;65579;45.534;6.212;2023-03-14T16:19:57;1;1;
76661;PMS5003;65579;45.534;6.212;2023-03-14T16:22:22;3;3;
76661;PMS5003;65579;45.534;6.212;2023-03-14T16:24:47;3;1;
76661;PMS5003;65579;45.534;6.212;2023-03-14T16:27:13;1;1;
76661;PMS5003;65579;45.534;6.212;2023-03-14T16:29:38;1;1;
76661;PMS5003;65579;45.534;6.212;2023-03-14T16:32:04;6;5;
76661;PMS5003;65579;45.534;6.212;2023-03-14T16:34:29;1;1;
76661;PMS5003;65579;45.534;6.212;2023-03-14T16:36:54;1;1;
76661;PMS5003;65579;45.534;6.212;2023-03-14T16:39:20;3;1;
76661;PMS5003;65579;45.534;6.212;2023-03-14T16:41:45;3;3;
76661;PMS5003;65579;45.534;6.212;2023-03-14T16:44:10;2;2;
76661;PMS5003;65579;45.534;6.212;2023-03-14T16:46:35;3;2;
76661;PMS5003;65579;45.534;6.212;2023-03-14T16:49:01;2;2;
76661;PMS5003;65579;45.534;6.212;2023-03-14T16:51:26;2;2;
76661;PMS5003;65579;45.534;6.212;2023-03-14T16:53:53;2;2;
76661;PMS5003;65579;45.534;6.212;2023-03-14T16:56:17;2;2;
76661;PMS5003;65579;45.534;6.212;2023-03-14T16:58:42;0;0;
76661;PMS5003;65579;45.534;6.212;2023-03-14T17:01:08;4;4;
76661;PMS5003;65579;45.534;6.212;2023-03-14T17:03:33;6;6;
76661;PMS5003;65579;45.534;6.212;2023-03-14T17:05:58;6;6;
76661;PMS5003;65579;45.534;6.212;2023-03-14T17:08:23;4;4;
76661;PMS5003;65579;45.534;6.212;2023-03-14T17:10:49;7;7;
76661;PMS5003;65579;45.534;6.212;2023-03-14T17:13:14;4;4;